Time;durP1;ratioP1;P1;durP2;ratioP2;P2;SDS_P1;SDS_P2;PMS_P1;PMS_P2;Temp;Humidity;BMP_temperature;BMP_pressure;BME280_temperature;BME280_humidity;BME280_pressure;Samples;Min_cycle;Max_cycle;Signal;HPM_P1;HPM_P2
2021/03/09 00:02:21;;;;;;;17.70;9.13;;;5.00;99.60;;;;;;5013615;28;20695;-67
2021/03/09 00:04:47;;;;;;;20.23;9.37;;;5.00;99.60;;;;;;5030226;28;20245;-68
2021/03/09 00:07:13;;;;;;;17.50;9.40;;;5.00;99.50;;;;;;5013470;28;20267;-66
2021/03/09 00:09:38;;;;;;;16.43;9.00;;;5.00;99.60;;;;;;5009728;28;20233;-66
2021/03/09 00:12:04;;;;;;;12.37;8.07;;;5.00;99.60;;;;;;5040691;28;20236;-67
2021/03/09 00:14:30;;;;;;;16.70;9.80;;;5.00;99.70;;;;;;5009343;28;20300;-67
2021/03/09 00:16:56;;;;;;;21.27;11.07;;;4.90;99.90;;;;;;4992886;28;20544;-68
2021/03/09 00:19:22;;;;;;;17.90;9.67;;;4.90;99.90;;;;;;4993618;28;20237;-67
2021/03/09 00:21:47;;;;;;;18.10;10.70;;;4.90;99.90;;;;;;4989699;28;20232;-67
2021/03/09 00:24:13;;;;;;;20.70;11.03;;;4.80;99.90;;;;;;4996861;28;20213;-67
2021/03/09 00:26:39;;;;;;;20.87;9.50;;;4.80;99.70;;;;;;5002990;28;20487;-67
2021/03/09 00:29:04;;;;;;;20.07;9.30;;;4.80;99.90;;;;;;5032352;28;20217;-67
2021/03/09 00:31:30;;;;;;;15.03;8.63;;;4.80;99.80;;;;;;5016350;28;20312;-66
2021/03/09 00:33:56;;;;;;;18.00;9.43;;;4.90;99.90;;;;;;5015725;28;20224;-66
2021/03/09 00:36:21;;;;;;;22.00;10.10;;;4.80;99.90;;;;;;5028297;28;20240;-68
2021/03/09 00:38:47;;;;;;;22.97;10.90;;;4.80;99.80;;;;;;5013000;28;20640;-68
2021/03/09 00:41:13;;;;;;;17.67;9.07;;;4.80;99.80;;;;;;4996203;28;20222;-70
2021/03/09 00:43:38;;;;;;;18.80;9.03;;;4.80;99.90;;;;;;4995953;28;20248;-66
2021/03/09 00:46:04;;;;;;;19.60;9.87;;;4.80;99.90;;;;;;4992370;28;20239;-66
2021/03/09 00:48:39;;;;;;;32.20;12.07;;;4.80;99.90;;;;;;4998155;28;20223;-68
2021/03/09 00:51:06;;;;;;;20.17;12.00;;;4.80;99.90;;;;;;5030366;28;20220;-68
2021/03/09 00:53:32;;;;;;;25.80;12.07;;;4.80;99.90;;;;;;5025648;28;20459;-69
2021/03/09 00:55:57;;;;;;;21.37;12.73;;;4.80;99.90;;;;;;5012411;28;20448;-69
2021/03/09 00:58:23;;;;;;;24.17;15.67;;;4.80;99.90;;;;;;5008880;28;20448;-67
2021/03/09 01:00:49;;;;;;;25.03;15.60;;;4.80;99.90;;;;;;5008420;28;20213;-67
2021/03/09 01:03:15;;;;;;;25.50;14.00;;;4.80;99.90;;;;;;5033388;28;20297;-70
2021/03/09 01:05:40;;;;;;;27.60;12.97;;;4.70;99.90;;;;;;5001832;28;20294;-68
2021/03/09 01:08:06;;;;;;;17.13;9.40;;;4.70;99.90;;;;;;5047060;28;20262;-68
2021/03/09 01:10:33;;;;;;;17.50;9.80;;;4.70;99.90;;;;;;5030617;28;20307;-68
2021/03/09 01:12:59;;;;;;;20.00;9.90;;;4.70;99.90;;;;;;5029104;28;20786;-68
2021/03/09 01:15:24;;;;;;;19.50;9.40;;;4.70;99.90;;;;;;5010543;28;20531;-68
2021/03/09 01:17:50;;;;;;;17.60;9.83;;;4.70;99.90;;;;;;5027924;28;20245;-68
2021/03/09 01:20:16;;;;;;;14.10;8.70;;;4.70;99.90;;;;;;5028025;28;20224;-69
2021/03/09 01:22:41;;;;;;;23.03;10.40;;;4.70;99.90;;;;;;4995161;28;20464;-68
2021/03/09 01:25:21;;;;;;;17.80;9.43;;;4.70;99.90;;;;;;5010835;28;20217;-69
2021/03/09 01:27:47;;;;;;;20.43;9.27;;;4.70;99.90;;;;;;5040977;28;20302;-69
2021/03/09 01:31:04;;;;;;;21.33;9.60;;;4.70;99.90;;;;;;5014959;28;20526;-68
2021/03/09 01:33:30;;;;;;;18.03;8.93;;;4.70;99.90;;;;;;5049436;28;20238;-69
2021/03/09 01:35:56;;;;;;;19.67;9.37;;;4.70;99.90;;;;;;5015041;28;20905;-69
2021/03/09 01:38:21;;;;;;;16.47;9.30;;;4.60;99.90;;;;;;5047653;28;20258;-69
2021/03/09 01:40:47;;;;;;;15.97;8.20;;;4.70;99.90;;;;;;5031436;28;20231;-67
2021/03/09 01:43:13;;;;;;;18.90;9.93;;;4.70;99.90;;;;;;5031447;28;20285;-69
2021/03/09 01:45:38;;;;;;;18.67;9.07;;;4.70;99.90;;;;;;5015562;28;20231;-69
2021/03/09 01:48:06;;;;;;;21.70;10.53;;;4.60;99.90;;;;;;5031445;28;20220;-69
2021/03/09 01:50:34;;;;;;;23.83;10.27;;;4.60;99.90;;;;;;5031720;28;20221;-68
2021/03/09 01:53:06;;;;;;;17.03;9.17;;;4.60;99.90;;;;;;5047975;28;20538;-69
2021/03/09 01:55:32;;;;;;;26.53;10.57;;;4.60;99.90;;;;;;5048354;28;20459;-68
2021/03/09 01:58:00;;;;;;;21.07;9.63;;;4.60;99.90;;;;;;5014912;28;20451;-69
2021/03/09 02:00:26;;;;;;;17.40;9.80;;;4.50;99.90;;;;;;5031821;28;20446;-68
2021/03/09 02:02:53;;;;;;;20.60;10.73;;;4.50;99.90;;;;;;5015256;28;20463;-69
2021/03/09 02:05:19;;;;;;;18.30;8.27;;;4.60;99.90;;;;;;5045324;28;20814;-69
2021/03/09 02:07:44;;;;;;;18.57;10.23;;;4.60;99.90;;;;;;5048039;28;20466;-68
2021/03/09 02:10:13;;;;;;;26.07;10.50;;;4.60;99.90;;;;;;5031298;28;20235;-68
2021/03/09 02:13:11;;;;;;;22.17;9.50;;;4.60;99.90;;;;;;5035951;28;20587;-69
2021/03/09 02:16:01;;;;;;;18.47;8.53;;;4.60;99.90;;;;;;5004583;28;20474;-69
2021/03/09 02:18:59;;;;;;;19.10;9.70;;;4.60;99.90;;;;;;5028385;28;20452;-69
2021/03/09 02:21:56;;;;;;;17.83;9.93;;;4.60;99.90;;;;;;5011067;28;20456;-68
2021/03/09 02:24:40;;;;;;;20.00;9.50;;;4.60;99.90;;;;;;5040017;28;20505;-69
2021/03/09 02:27:39;;;;;;;16.13;9.37;;;4.50;99.90;;;;;;5042760;28;20530;-69
2021/03/09 02:30:17;;;;;;;18.30;9.77;;;4.50;99.90;;;;;;5011095;28;20454;-68
2021/03/09 02:32:50;;;;;;;19.13;10.27;;;4.50;99.90;;;;;;5048000;28;20862;-69
2021/03/09 02:35:20;;;;;;;18.83;9.43;;;4.50;99.90;;;;;;5047513;28;20530;-69
2021/03/09 02:37:48;;;;;;;15.50;9.10;;;4.50;99.90;;;;;;4999546;28;20474;-69
2021/03/09 02:40:15;;;;;;;20.37;10.23;;;4.50;99.90;;;;;;4992539;28;20443;-69
2021/03/09 02:43:01;;;;;;;21.67;9.53;;;4.50;99.90;;;;;;5011200;28;21024;-68
2021/03/09 02:45:27;;;;;;;12.73;8.77;;;4.50;99.90;;;;;;5027819;28;20448;-69
2021/03/09 02:47:54;;;;;;;27.73;11.60;;;4.50;99.90;;;;;;5010932;28;20464;-69
2021/03/09 02:50:24;;;;;;;23.50;9.70;;;4.50;99.90;;;;;;5011132;28;20496;-68
2021/03/09 02:52:56;;;;;;;20.07;9.90;;;4.50;99.90;;;;;;5011342;28;20455;-69
2021/03/09 02:55:23;;;;;;;22.03;11.77;;;4.50;99.90;;;;;;5027650;28;20447;-67
2021/03/09 02:57:50;;;;;;;21.67;8.83;;;4.50;99.90;;;;;;5027320;28;20456;-69
2021/03/09 03:00:17;;;;;;;24.87;11.47;;;4.40;99.90;;;;;;5026959;28;20566;-70
2021/03/09 03:02:44;;;;;;;19.20;10.03;;;4.50;99.90;;;;;;5027686;28;20476;-69
2021/03/09 03:05:10;;;;;;;22.20;11.53;;;4.40;99.90;;;;;;4994543;28;20842;-69
2021/03/09 03:07:38;;;;;;;24.70;11.07;;;4.40;99.90;;;;;;5030879;28;20466;-68
2021/03/09 03:10:06;;;;;;;17.97;10.27;;;4.50;99.90;;;;;;5022227;28;20439;-69
2021/03/09 03:12:33;;;;;;;21.40;10.60;;;4.40;99.90;;;;;;5006818;28;20464;-68
2021/03/09 03:15:01;;;;;;;17.60;9.87;;;4.40;99.90;;;;;;5030599;28;20577;-69
2021/03/09 03:17:30;;;;;;;21.47;10.47;;;4.40;99.90;;;;;;5014024;28;20856;-69
2021/03/09 03:19:57;;;;;;;18.33;9.93;;;4.40;99.90;;;;;;5030644;28;21224;-69
2021/03/09 03:22:25;;;;;;;19.07;10.00;;;4.50;99.90;;;;;;4998306;28;20464;-70
2021/03/09 03:24:52;;;;;;;20.03;9.70;;;4.40;99.90;;;;;;5014559;28;20463;-68
2021/03/09 03:27:19;;;;;;;25.10;9.90;;;4.40;99.90;;;;;;5013926;28;20942;-67
2021/03/09 03:30:00;;;;;;;19.60;9.67;;;4.50;99.90;;;;;;4997888;28;20447;-69
2021/03/09 03:32:26;;;;;;;24.40;9.97;;;4.40;99.90;;;;;;5014352;28;20835;-69
2021/03/09 03:34:53;;;;;;;20.53;10.37;;;4.40;99.90;;;;;;4997265;28;20500;-70
2021/03/09 03:37:20;;;;;;;19.20;9.30;;;4.40;99.90;;;;;;5018579;28;20283;-70
2021/03/09 03:39:45;;;;;;;19.20;9.60;;;4.40;99.90;;;;;;4994470;28;20460;-69
2021/03/09 03:42:11;;;;;;;18.57;9.87;;;4.40;99.90;;;;;;4993875;28;20471;-68
2021/03/09 03:44:37;;;;;;;20.00;9.70;;;4.40;99.90;;;;;;4994681;28;20213;-68
2021/03/09 03:47:02;;;;;;;18.50;10.17;;;4.40;99.90;;;;;;4993868;28;20711;-69
2021/03/09 03:49:29;;;;;;;20.43;9.67;;;4.40;99.90;;;;;;4994090;28;20688;-67
2021/03/09 03:52:04;;;;;;;19.93;10.10;;;4.40;99.90;;;;;;4993897;28;20236;-68
2021/03/09 03:54:45;;;;;;;16.80;9.53;;;4.40;99.90;;;;;;5030586;28;20538;-67
2021/03/09 03:57:18;;;;;;;22.60;10.60;;;4.40;99.90;;;;;;5038273;28;20467;-66
2021/03/09 03:59:47;;;;;;;23.50;10.93;;;4.40;99.90;;;;;;5013469;28;20494;-67
2021/03/09 04:02:15;;;;;;;19.60;10.47;;;4.40;99.90;;;;;;4997027;28;20451;-66
2021/03/09 04:04:44;;;;;;;27.13;10.53;;;4.40;99.90;;;;;;5031387;28;20473;-67
2021/03/09 04:07:09;;;;;;;21.13;10.43;;;4.40;99.90;;;;;;5013351;28;20556;-68
2021/03/09 04:09:36;;;;;;;24.47;10.70;;;4.40;99.90;;;;;;4996913;28;20544;-67
2021/03/09 04:12:04;;;;;;;21.70;10.27;;;4.40;99.90;;;;;;5029754;28;20228;-68
2021/03/09 04:14:32;;;;;;;22.90;11.47;;;4.40;99.90;;;;;;5018656;28;20484;-67
2021/03/09 04:17:01;;;;;;;27.30;13.10;;;4.40;99.90;;;;;;5009302;28;20449;-68
2021/03/09 04:19:27;;;;;;;25.67;14.43;;;4.40;99.90;;;;;;4993248;28;20488;-67
2021/03/09 04:21:54;;;;;;;23.23;12.93;;;4.30;99.90;;;;;;4993239;28;20480;-67
2021/03/09 04:24:20;;;;;;;25.13;11.93;;;4.40;99.90;;;;;;4993460;28;20449;-68
2021/03/09 04:26:46;;;;;;;21.03;11.10;;;4.30;99.90;;;;;;5026565;28;20535;-68
2021/03/09 04:29:13;;;;;;;21.90;10.70;;;4.30;99.90;;;;;;4996371;28;20535;-67
2021/03/09 04:31:42;;;;;;;23.80;11.87;;;4.30;99.90;;;;;;4996632;28;20229;-68
2021/03/09 04:34:09;;;;;;;22.00;10.27;;;4.30;99.90;;;;;;5012663;28;20463;-68
2021/03/09 04:36:35;;;;;;;20.67;11.37;;;4.30;99.90;;;;;;5035545;28;20485;-67
2021/03/09 04:39:03;;;;;;;22.57;10.40;;;4.30;99.90;;;;;;5000279;28;20466;-68
2021/03/09 04:41:30;;;;;;;16.07;9.70;;;4.30;99.90;;;;;;5029066;28;20501;-67
2021/03/09 04:43:56;;;;;;;23.07;10.30;;;4.30;99.90;;;;;;5012841;28;20467;-67
2021/03/09 04:46:22;;;;;;;22.50;12.20;;;4.30;99.90;;;;;;5029648;28;20455;-67
2021/03/09 04:48:48;;;;;;;22.80;11.63;;;4.30;99.90;;;;;;4996528;28;20232;-67
2021/03/09 04:51:16;;;;;;;21.30;9.87;;;4.30;99.90;;;;;;5012205;28;20440;-67
2021/03/09 04:53:44;;;;;;;19.53;10.13;;;4.30;99.90;;;;;;5013000;28;20505;-67
2021/03/09 04:56:09;;;;;;;18.47;10.03;;;4.30;99.90;;;;;;5012365;28;20550;-67
2021/03/09 04:58:35;;;;;;;21.17;10.00;;;4.30;99.90;;;;;;4996377;28;20893;-68
2021/03/09 05:01:02;;;;;;;22.03;9.83;;;4.30;99.90;;;;;;4994247;28;20297;-67
2021/03/09 05:03:27;;;;;;;19.00;11.00;;;4.30;99.90;;;;;;5037048;28;20562;-69
2021/03/09 05:05:53;;;;;;;20.60;10.10;;;4.30;99.90;;;;;;5040823;28;20489;-67
2021/03/09 05:08:20;;;;;;;27.27;11.23;;;4.30;99.90;;;;;;5036568;28;20300;-67
2021/03/09 05:10:46;;;;;;;23.27;11.27;;;4.30;99.90;;;;;;5046519;28;20239;-68
2021/03/09 05:13:11;;;;;;;21.30;11.10;;;4.30;99.90;;;;;;5022967;28;20461;-67
2021/03/09 05:15:37;;;;;;;28.53;11.10;;;4.30;99.90;;;;;;5002123;28;20457;-67
2021/03/09 05:18:04;;;;;;;20.63;10.90;;;4.30;99.90;;;;;;5030553;28;20223;-68
2021/03/09 05:20:29;;;;;;;23.23;10.67;;;4.30;99.90;;;;;;5049756;28;20600;-67
2021/03/09 05:22:55;;;;;;;22.03;10.20;;;4.30;99.90;;;;;;5040885;28;20985;-67
2021/03/09 05:25:21;;;;;;;23.37;11.33;;;4.30;99.90;;;;;;5013429;28;20217;-67
2021/03/09 05:27:49;;;;;;;21.50;10.03;;;4.30;99.90;;;;;;5021969;28;20240;-67
2021/03/09 05:30:18;;;;;;;25.30;12.03;;;4.30;99.90;;;;;;5027965;28;20227;-67
2021/03/09 05:32:45;;;;;;;25.97;10.50;;;4.30;99.90;;;;;;4994905;28;20451;-67
2021/03/09 05:35:13;;;;;;;20.77;10.50;;;4.30;99.90;;;;;;5036698;28;20459;-67
2021/03/09 05:37:39;;;;;;;20.40;10.73;;;4.30;99.90;;;;;;5029198;28;20460;-67
2021/03/09 05:40:06;;;;;;;25.30;11.80;;;4.30;99.90;;;;;;5011289;28;20459;-68
2021/03/09 05:42:33;;;;;;;26.00;11.73;;;4.30;99.90;;;;;;5007697;28;20612;-66
2021/03/09 05:44:58;;;;;;;19.37;10.30;;;4.30;99.90;;;;;;5006895;28;20451;-66
2021/03/09 05:47:24;;;;;;;31.00;13.20;;;4.30;99.90;;;;;;5011828;28;20464;-67
2021/03/09 05:49:50;;;;;;;23.80;11.70;;;4.30;99.90;;;;;;5011490;28;20223;-67
2021/03/09 05:52:19;;;;;;;19.73;10.53;;;4.30;99.90;;;;;;5007084;28;20453;-66
2021/03/09 05:54:46;;;;;;;24.87;12.67;;;4.30;99.90;;;;;;5023068;28;20454;-67
2021/03/09 05:57:12;;;;;;;23.87;12.00;;;4.30;99.90;;;;;;5015464;28;20538;-67
2021/03/09 05:59:38;;;;;;;20.87;12.20;;;4.30;99.90;;;;;;5007992;28;20453;-66
2021/03/09 06:02:04;;;;;;;27.67;13.40;;;4.30;99.90;;;;;;5015016;28;20472;-67
2021/03/09 06:04:34;;;;;;;30.63;13.00;;;4.30;99.90;;;;;;5033210;28;21363;-67
2021/03/09 06:07:00;;;;;;;22.40;13.40;;;4.30;99.90;;;;;;5026680;28;20452;-70
2021/03/09 06:09:42;;;;;;;29.33;14.90;;;4.20;99.90;;;;;;5011317;28;20470;-67
2021/03/09 06:12:10;;;;;;;25.70;12.87;;;4.20;99.90;;;;;;5022245;28;20456;-68
2021/03/09 06:15:04;;;;;;;23.80;12.37;;;4.20;99.90;;;;;;5004240;28;20464;-67
2021/03/09 06:17:38;;;;;;;25.47;13.83;;;4.20;99.90;;;;;;5027259;28;20471;-67
2021/03/09 06:20:06;;;;;;;30.93;14.77;;;4.20;99.90;;;;;;4992769;28;20461;-68
2021/03/09 06:22:42;;;;;;;34.30;15.33;;;4.20;99.90;;;;;;5020596;28;20993;-69
2021/03/09 06:25:11;;;;;;;44.90;17.70;;;4.20;99.90;;;;;;4985331;28;20487;-68
2021/03/09 06:27:38;;;;;;;35.03;16.10;;;4.20;99.90;;;;;;5030704;28;20516;-68
2021/03/09 06:30:12;;;;;;;29.03;13.57;;;4.20;99.90;;;;;;5030620;28;20509;-69
2021/03/09 06:32:44;;;;;;;22.47;11.87;;;4.20;99.90;;;;;;5017750;28;20958;-69
2021/03/09 06:35:30;;;;;;;28.93;11.47;;;4.20;99.90;;;;;;5026472;28;20468;-68
2021/03/09 06:38:19;;;;;;;22.60;11.90;;;4.20;99.90;;;;;;5025281;28;20451;-69
2021/03/09 06:41:11;;;;;;;23.67;11.60;;;4.20;99.90;;;;;;5007082;28;20497;-69
2021/03/09 06:43:39;;;;;;;23.33;10.63;;;4.20;99.90;;;;;;5019959;28;20574;-66
2021/03/09 06:46:16;;;;;;;25.07;11.70;;;4.20;99.90;;;;;;5021439;28;20486;-69
2021/03/09 06:48:44;;;;;;;16.80;10.40;;;4.20;99.90;;;;;;5048532;28;20450;-68
2021/03/09 06:51:33;;;;;;;23.40;11.07;;;4.20;99.90;;;;;;5034522;28;20490;-68
2021/03/09 06:54:12;;;;;;;20.27;10.23;;;4.20;99.90;;;;;;5008436;28;20490;-68
2021/03/09 06:56:40;;;;;;;20.63;12.20;;;4.20;99.90;;;;;;5037277;28;20490;-68
2021/03/09 06:59:30;;;;;;;21.33;10.67;;;4.20;99.90;;;;;;5033972;28;20490;-68
2021/03/09 07:02:05;;;;;;;19.17;9.50;;;4.20;99.90;;;;;;5017236;28;20512;-67
2021/03/09 07:04:32;;;;;;;30.60;11.43;;;4.20;99.90;;;;;;5050725;28;20956;-68
2021/03/09 07:06:58;;;;;;;20.20;10.33;;;4.20;99.90;;;;;;5033598;28;20960;-68
2021/03/09 07:09:24;;;;;;;25.13;11.60;;;4.20;99.90;;;;;;5034062;28;20462;-69
2021/03/09 07:11:50;;;;;;;21.03;11.07;;;4.20;99.90;;;;;;5028685;28;20239;-67
2021/03/09 07:14:16;;;;;;;20.03;10.67;;;4.20;99.90;;;;;;5029638;28;20213;-68
2021/03/09 07:16:48;;;;;;;22.30;13.00;;;4.20;99.90;;;;;;5030531;28;20870;-68
2021/03/09 07:19:22;;;;;;;30.37;14.83;;;4.20;99.90;;;;;;5012799;28;20455;-67
2021/03/09 07:21:49;;;;;;;24.47;13.83;;;4.20;99.90;;;;;;5030330;28;20534;-70
2021/03/09 07:24:21;;;;;;;28.17;13.17;;;4.20;99.90;;;;;;5029552;28;20440;-68
2021/03/09 07:26:50;;;;;;;21.03;12.30;;;4.20;99.90;;;;;;5034512;28;20474;-69
2021/03/09 07:29:17;;;;;;;27.40;12.80;;;4.20;99.90;;;;;;5039983;28;20526;-67
2021/03/09 07:31:47;;;;;;;26.90;14.73;;;4.20;99.90;;;;;;5017061;28;20469;-69
2021/03/09 07:34:14;;;;;;;41.30;16.07;;;4.20;99.90;;;;;;5033576;28;20447;-68
2021/03/09 07:36:40;;;;;;;26.90;13.50;;;4.20;99.90;;;;;;5014521;28;20501;-67
2021/03/09 07:39:07;;;;;;;32.33;14.87;;;4.30;99.90;;;;;;5022942;28;20456;-67
2021/03/09 07:41:35;;;;;;;29.17;13.60;;;4.30;99.90;;;;;;5013031;28;20229;-67
2021/03/09 07:44:01;;;;;;;25.43;12.50;;;4.30;99.90;;;;;;5012595;28;20460;-69
2021/03/09 07:46:27;;;;;;;30.27;12.60;;;4.30;99.90;;;;;;4997172;28;20990;-67
2021/03/09 07:48:54;;;;;;;22.57;12.10;;;4.30;99.90;;;;;;4996970;28;20248;-67
2021/03/09 07:51:22;;;;;;;23.73;11.70;;;4.30;99.90;;;;;;4996806;28;20463;-67
2021/03/09 07:54:10;;;;;;;25.07;11.27;;;4.30;99.90;;;;;;5013451;28;20467;-69
2021/03/09 07:56:36;;;;;;;25.10;12.77;;;4.30;99.90;;;;;;5030050;28;20510;-68
2021/03/09 07:59:06;;;;;;;29.63;12.33;;;4.40;99.90;;;;;;5013212;28;20487;-67
2021/03/09 08:01:47;;;;;;;24.30;11.60;;;4.40;99.90;;;;;;5013209;28;20521;-68
2021/03/09 08:04:13;;;;;;;21.07;10.03;;;4.40;99.90;;;;;;4978969;28;20452;-67
2021/03/09 08:06:43;;;;;;;24.13;11.83;;;4.40;99.90;;;;;;4995666;28;20531;-67
2021/03/09 08:09:35;;;;;;;27.27;13.60;;;4.40;99.90;;;;;;4994343;28;20279;-68
2021/03/09 08:12:01;;;;;;;24.90;12.87;;;4.50;99.90;;;;;;5028173;28;20567;-68
2021/03/09 08:14:28;;;;;;;31.17;13.37;;;4.50;99.90;;;;;;5044197;28;20531;-68
2021/03/09 08:16:54;;;;;;;26.97;11.90;;;4.50;99.90;;;;;;5026336;28;20460;-67
2021/03/09 08:19:29;;;;;;;26.97;13.03;;;4.50;99.90;;;;;;5023194;28;20851;-68
2021/03/09 08:22:01;;;;;;;24.87;12.00;;;4.50;99.90;;;;;;5005776;28;20464;-67
2021/03/09 08:24:42;;;;;;;30.77;12.77;;;4.50;99.90;;;;;;5011418;28;21086;-68
2021/03/09 08:27:30;;;;;;;24.37;11.07;;;4.60;99.90;;;;;;5017941;28;20453;-68
2021/03/09 08:30:22;;;;;;;28.97;12.57;;;4.60;99.90;;;;;;5014592;28;20447;-67
2021/03/09 08:32:47;;;;;;;25.60;12.70;;;4.60;99.90;;;;;;4993894;28;20510;-67
2021/03/09 08:35:13;;;;;;;30.70;12.10;;;4.60;99.90;;;;;;4981062;28;20463;-68
2021/03/09 08:37:43;;;;;;;22.03;11.70;;;4.70;99.90;;;;;;5001438;28;20714;-69
2021/03/09 08:40:20;;;;;;;29.10;13.07;;;4.70;99.90;;;;;;4980213;28;20259;-68
2021/03/09 08:43:01;;;;;;;23.53;12.10;;;4.70;99.90;;;;;;5016149;28;20479;-68
2021/03/09 08:45:54;;;;;;;25.93;10.47;;;4.80;99.90;;;;;;5028858;28;20553;-68
2021/03/09 08:48:44;;;;;;;21.13;12.10;;;4.80;99.90;;;;;;5008396;28;20507;-67
2021/03/09 08:51:42;;;;;;;27.77;14.53;;;4.90;99.90;;;;;;5005256;28;21014;-67
2021/03/09 08:54:26;;;;;;;24.80;11.87;;;5.00;99.90;;;;;;5005585;28;20820;-67
2021/03/09 08:56:52;;;;;;;31.40;14.07;;;5.00;99.90;;;;;;4989481;28;20468;-69
2021/03/09 08:59:29;;;;;;;39.57;13.90;;;5.10;99.90;;;;;;4996533;28;20448;-69
2021/03/09 09:02:05;;;;;;;27.10;12.07;;;5.10;99.90;;;;;;5004469;28;20804;-67
2021/03/09 09:04:31;;;;;;;32.70;12.23;;;5.20;99.90;;;;;;5023841;28;20451;-66
2021/03/09 09:06:56;;;;;;;20.67;12.00;;;5.20;99.90;;;;;;4991146;28;20479;-68
2021/03/09 09:09:30;;;;;;;29.17;13.40;;;5.30;99.90;;;;;;5014479;28;20219;-67
2021/03/09 09:11:57;;;;;;;25.90;12.67;;;5.30;99.90;;;;;;5023321;28;20695;-67
2021/03/09 09:14:23;;;;;;;24.90;12.47;;;5.40;99.90;;;;;;5009824;28;20982;-67
2021/03/09 09:16:52;;;;;;;26.57;10.90;;;5.40;99.90;;;;;;4994423;28;20460;-67
2021/03/09 09:19:17;;;;;;;21.57;11.10;;;5.50;99.90;;;;;;4987532;28;20588;-71
2021/03/09 09:21:45;;;;;;;26.93;12.60;;;5.50;99.90;;;;;;4993661;28;20463;-67
2021/03/09 09:24:21;;;;;;;24.50;10.53;;;5.50;99.90;;;;;;5026204;28;20237;-67
2021/03/09 09:27:00;;;;;;;25.97;12.27;;;5.60;99.90;;;;;;5011165;28;20468;-67
2021/03/09 09:29:26;;;;;;;21.40;10.90;;;5.70;99.90;;;;;;4996673;28;20797;-68
2021/03/09 09:32:00;;;;;;;22.23;9.63;;;5.80;99.90;;;;;;5007044;28;20465;-69
2021/03/09 09:34:37;;;;;;;24.37;11.37;;;5.90;99.90;;;;;;5008761;28;20468;-67
2021/03/09 09:37:11;;;;;;;30.77;14.60;;;5.90;99.90;;;;;;5008833;28;20550;-67
2021/03/09 09:39:37;;;;;;;27.43;13.07;;;5.90;99.90;;;;;;4993950;28;20450;-67
2021/03/09 09:42:03;;;;;;;26.37;10.23;;;6.00;99.90;;;;;;5026682;28;20460;-67
2021/03/09 09:44:29;;;;;;;26.80;11.40;;;6.00;99.90;;;;;;5028440;28;20216;-67
2021/03/09 09:46:55;;;;;;;15.93;9.77;;;6.10;99.90;;;;;;5026893;28;20805;-67
2021/03/09 09:49:21;;;;;;;20.33;9.37;;;6.10;99.90;;;;;;5010061;28;20633;-72
2021/03/09 09:51:47;;;;;;;17.53;9.10;;;6.20;99.90;;;;;;4993078;28;20470;-73
2021/03/09 09:54:13;;;;;;;12.97;7.77;;;6.30;99.90;;;;;;5027093;28;20515;-71
2021/03/09 09:56:39;;;;;;;18.77;8.93;;;6.30;99.90;;;;;;5038300;28;20563;-70
2021/03/09 09:59:05;;;;;;;15.13;8.17;;;6.40;99.90;;;;;;5027684;28;20307;-70
2021/03/09 10:01:35;;;;;;;16.43;7.30;;;6.50;99.90;;;;;;5027688;28;20278;-70
2021/03/09 10:04:03;;;;;;;12.03;7.40;;;6.50;99.90;;;;;;5026952;28;20236;-69
2021/03/09 10:06:36;;;;;;;15.50;9.27;;;6.60;99.90;;;;;;5027743;28;20458;-69
2021/03/09 10:09:18;;;;;;;24.70;14.33;;;6.60;99.90;;;;;;5032469;28;20530;-69
2021/03/09 10:11:49;;;;;;;22.93;14.10;;;6.60;99.90;;;;;;5008638;28;20756;-71
2021/03/09 10:14:16;;;;;;;19.70;10.40;;;6.70;99.90;;;;;;5025109;28;20456;-70
2021/03/09 10:16:43;;;;;;;18.33;9.13;;;6.80;99.90;;;;;;5007205;28;20460;-71
2021/03/09 10:19:11;;;;;;;15.90;8.07;;;6.80;99.90;;;;;;4995207;28;20989;-70
2021/03/09 10:21:39;;;;;;;13.93;7.20;;;6.90;99.90;;;;;;5008540;28;20883;-70
2021/03/09 10:24:06;;;;;;;11.53;6.27;;;7.00;99.90;;;;;;4992457;28;20522;-70
2021/03/09 10:26:34;;;;;;;14.73;7.57;;;7.00;99.90;;;;;;5030875;28;20451;-71
2021/03/09 10:29:06;;;;;;;36.57;16.50;;;7.10;99.90;;;;;;5030715;28;20455;-69
2021/03/09 10:31:50;;;;;;;48.70;21.80;;;7.10;99.90;;;;;;5015575;28;20455;-70
2021/03/09 10:34:20;;;;;;;27.83;12.87;;;7.20;99.90;;;;;;5027013;28;20542;-69
2021/03/09 10:37:00;;;;;;;25.63;12.70;;;7.20;99.90;;;;;;5012539;28;20471;-69
2021/03/09 10:39:28;;;;;;;25.37;11.80;;;7.30;99.90;;;;;;5047256;28;20528;-70
2021/03/09 10:41:54;;;;;;;35.83;18.00;;;7.30;99.90;;;;;;5023907;28;20459;-70
2021/03/09 10:44:32;;;;;;;21.03;12.90;;;7.30;99.90;;;;;;5011736;28;20452;-70
2021/03/09 10:46:59;;;;;;;11.13;7.30;;;7.40;99.90;;;;;;4992479;28;21008;-68
2021/03/09 10:49:26;;;;;;;8.43;5.60;;;7.50;99.90;;;;;;5010502;28;20456;-70
2021/03/09 10:52:10;;;;;;;7.43;4.50;;;7.50;99.90;;;;;;5011545;28;20919;-67
2021/03/09 10:54:37;;;;;;;7.83;4.90;;;7.60;99.90;;;;;;5012672;28;20444;-69
2021/03/09 10:57:07;;;;;;;8.40;4.20;;;7.60;99.90;;;;;;5030671;28;20451;-68
2021/03/09 10:59:33;;;;;;;8.00;3.70;;;7.70;99.90;;;;;;5030474;28;20534;-67
2021/03/09 11:01:59;;;;;;;6.80;4.13;;;7.70;99.90;;;;;;5031577;28;21025;-68
2021/03/09 11:04:24;;;;;;;5.73;3.50;;;7.90;99.90;;;;;;5026068;28;20234;-67
2021/03/09 11:06:50;;;;;;;4.73;3.23;;;8.00;99.90;;;;;;5017608;28;20234;-69
2021/03/09 11:09:16;;;;;;;4.57;2.70;;;8.00;99.90;;;;;;5004974;28;20219;-68
2021/03/09 11:11:42;;;;;;;4.13;2.30;;;8.00;99.90;;;;;;5000023;28;20452;-68
2021/03/09 11:14:08;;;;;;;3.30;2.67;;;8.10;99.90;;;;;;5017849;28;20221;-68
2021/03/09 11:16:34;;;;;;;2.70;2.50;;;8.20;99.90;;;;;;5006055;28;20232;-68
2021/03/09 11:19:00;;;;;;;3.20;2.40;;;8.20;99.90;;;;;;5020738;28;20227;-67
2021/03/09 11:21:27;;;;;;;4.63;2.40;;;8.20;99.90;;;;;;5023391;28;20227;-70
2021/03/09 11:23:53;;;;;;;4.17;2.57;;;8.20;99.90;;;;;;5019443;28;20468;-67
2021/03/09 11:26:23;;;;;;;4.23;2.73;;;8.20;99.90;;;;;;5003534;28;20829;-69
2021/03/09 11:28:49;;;;;;;7.00;2.57;;;8.30;99.90;;;;;;5028417;28;20503;-68
2021/03/09 11:31:16;;;;;;;5.67;3.90;;;8.30;99.90;;;;;;5013037;28;20462;-68
2021/03/09 11:33:42;;;;;;;7.37;5.50;;;8.30;99.90;;;;;;5047867;28;20546;-68
2021/03/09 11:36:09;;;;;;;9.10;5.93;;;8.40;99.90;;;;;;5012653;28;20918;-68
2021/03/09 11:38:35;;;;;;;12.77;6.20;;;8.40;99.90;;;;;;5028438;28;20874;-68
2021/03/09 11:41:02;;;;;;;8.60;5.87;;;8.40;99.90;;;;;;5012064;28;20464;-69
2021/03/09 11:43:28;;;;;;;15.60;8.50;;;8.40;99.90;;;;;;5029054;28;20465;-68
2021/03/09 11:45:54;;;;;;;23.40;12.77;;;8.40;99.90;;;;;;5012085;28;20480;-69
2021/03/09 11:48:20;;;;;;;22.40;12.40;;;8.40;99.90;;;;;;5026929;28;20523;-69
2021/03/09 11:50:46;;;;;;;37.43;18.37;;;8.50;99.90;;;;;;5027111;28;20555;-69
2021/03/09 11:53:11;;;;;;;36.40;17.70;;;8.50;99.90;;;;;;4993725;28;20224;-68
2021/03/09 11:55:37;;;;;;;15.40;7.80;;;8.60;99.90;;;;;;4990827;28;20268;-69
2021/03/09 11:58:03;;;;;;;28.13;13.03;;;8.70;99.90;;;;;;4986977;28;20226;-68
2021/03/09 12:00:28;;;;;;;28.93;14.23;;;8.80;99.90;;;;;;4990176;28;20236;-68
2021/03/09 12:02:54;;;;;;;10.40;6.00;;;8.80;99.90;;;;;;4996806;28;20244;-70
2021/03/09 12:05:19;;;;;;;8.27;5.53;;;8.90;99.90;;;;;;4980972;28;20234;-68
2021/03/09 12:07:45;;;;;;;5.83;3.33;;;8.90;99.90;;;;;;5004486;28;20260;-71
2021/03/09 12:10:11;;;;;;;4.70;2.87;;;9.00;99.90;;;;;;5010619;28;20213;-68
2021/03/09 12:12:37;;;;;;;7.27;5.27;;;9.00;99.90;;;;;;5017280;28;20228;-69
2021/03/09 12:15:03;;;;;;;6.30;5.60;;;9.10;99.90;;;;;;5015322;28;20278;-68
2021/03/09 12:17:29;;;;;;;8.30;4.60;;;9.10;99.90;;;;;;5009916;28;20300;-68
2021/03/09 12:19:55;;;;;;;3.40;2.50;;;9.10;99.90;;;;;;4992943;28;20542;-69
2021/03/09 12:22:20;;;;;;;4.10;3.40;;;9.20;99.90;;;;;;4984125;28;20273;-68
2021/03/09 12:24:46;;;;;;;4.87;3.80;;;9.20;99.90;;;;;;4990662;28;20222;-69
2021/03/09 12:27:12;;;;;;;9.57;5.80;;;9.30;99.90;;;;;;5033380;28;20217;-69
2021/03/09 12:29:38;;;;;;;7.70;5.50;;;9.30;99.90;;;;;;5045256;28;20274;-68
2021/03/09 12:32:03;;;;;;;6.23;5.03;;;9.30;99.90;;;;;;5045504;28;20255;-69
2021/03/09 12:34:29;;;;;;;10.90;6.57;;;9.40;99.90;;;;;;5026182;28;20949;-69
2021/03/09 12:36:55;;;;;;;6.87;6.00;;;9.40;99.90;;;;;;5016772;28;20225;-68
2021/03/09 12:39:20;;;;;;;12.00;8.93;;;9.40;99.90;;;;;;4988880;28;20222;-68
2021/03/09 12:41:46;;;;;;;8.10;6.40;;;9.50;99.90;;;;;;4990251;28;20230;-68
2021/03/09 12:44:12;;;;;;;5.37;4.03;;;9.50;99.90;;;;;;4997586;28;20229;-69
2021/03/09 12:46:37;;;;;;;4.30;3.00;;;9.50;99.90;;;;;;4999810;28;20221;-68
2021/03/09 12:49:03;;;;;;;4.90;3.20;;;9.50;99.90;;;;;;5016874;28;20301;-68
2021/03/09 12:51:29;;;;;;;5.87;3.60;;;9.50;99.90;;;;;;4979313;28;20226;-69
2021/03/09 12:53:54;;;;;;;4.03;2.90;;;9.40;99.90;;;;;;4987113;28;20250;-67
2021/03/09 12:56:21;;;;;;;5.80;3.03;;;9.50;99.90;;;;;;4976549;28;20287;-68